sensor_id;sensor_type;location;lat;lon;timestamp;temperature;humidity
65396;HTU21D;52004;45.136;39.010;2023-07-02T00:00:29;20.17;65.13
65396;HTU21D;52004;45.136;39.010;2023-07-02T00:02:55;20.15;65.14
65396;HTU21D;52004;45.136;39.010;2023-07-02T00:05:21;20.14;65.15
65396;HTU21D;52004;45.136;39.010;2023-07-02T00:07:47;20.14;65.18
65396;HTU21D;52004;45.136;39.010;2023-07-02T00:10:13;20.12;65.24
65396;HTU21D;52004;45.136;39.010;2023-07-02T00:12:39;20.12;65.27
65396;HTU21D;52004;45.136;39.010;2023-07-02T00:15:05;20.10;65.30
65396;HTU21D;52004;45.136;39.010;2023-07-02T00:17:31;20.11;65.31
65396;HTU21D;52004;45.136;39.010;2023-07-02T00:19:57;20.11;65.34
65396;HTU21D;52004;45.136;39.010;2023-07-02T00:22:28;20.10;65.35
65396;HTU21D;52004;45.136;39.010;2023-07-02T00:24:54;20.07;65.39
65396;HTU21D;52004;45.136;39.010;2023-07-02T00:27:21;20.06;65.40
65396;HTU21D;52004;45.136;39.010;2023-07-02T00:29:47;20.06;65.43
65396;HTU21D;52004;45.136;39.010;2023-07-02T00:32:13;20.05;65.50
65396;HTU21D;52004;45.136;39.010;2023-07-02T00:34:39;20.04;65.53
65396;HTU21D;52004;45.136;39.010;2023-07-02T00:37:06;20.03;65.53
65396;HTU21D;52004;45.136;39.010;2023-07-02T00:39:32;20.03;65.62
65396;HTU21D;52004;45.136;39.010;2023-07-02T00:42:03;20.02;65.66
65396;HTU21D;52004;45.136;39.010;2023-07-02T00:44:30;20.02;65.70
65396;HTU21D;52004;45.136;39.010;2023-07-02T00:46:56;20.02;65.76
65396;HTU21D;52004;45.136;39.010;2023-07-02T00:49:22;20.03;65.75
65396;HTU21D;52004;45.136;39.010;2023-07-02T00:51:48;20.03;65.78
65396;HTU21D;52004;45.136;39.010;2023-07-02T00:54:14;20.02;65.78
65396;HTU21D;52004;45.136;39.010;2023-07-02T00:56:40;20.01;65.82
65396;HTU21D;52004;45.136;39.010;2023-07-02T00:59:06;20.02;65.80
65396;HTU21D;52004;45.136;39.010;2023-07-02T01:01:33;20.01;65.92
65396;HTU21D;52004;45.136;39.010;2023-07-02T01:04:04;20.02;65.95
65396;HTU21D;52004;45.136;39.010;2023-07-02T01:08:57;20.00;66.07
65396;HTU21D;52004;45.136;39.010;2023-07-02T01:11:26;19.99;66.05
65396;HTU21D;52004;45.136;39.010;2023-07-02T01:13:53;20.00;66.06
65396;HTU21D;52004;45.136;39.010;2023-07-02T01:16:20;20.02;66.06
65396;HTU21D;52004;45.136;39.010;2023-07-02T01:18:47;19.99;66.05
65396;HTU21D;52004;45.136;39.010;2023-07-02T01:21:14;20.00;66.07
65396;HTU21D;52004;45.136;39.010;2023-07-02T01:23:40;19.99;66.11
65396;HTU21D;52004;45.136;39.010;2023-07-02T01:26:06;19.99;66.07
65396;HTU21D;52004;45.136;39.010;2023-07-02T01:28:36;19.97;66.10
65396;HTU21D;52004;45.136;39.010;2023-07-02T01:31:04;19.95;66.12
65396;HTU21D;52004;45.136;39.010;2023-07-02T01:33:31;19.95;66.13
65396;HTU21D;52004;45.136;39.010;2023-07-02T01:35:57;19.94;66.13
65396;HTU21D;52004;45.136;39.010;2023-07-02T01:38:23;19.91;66.16
65396;HTU21D;52004;45.136;39.010;2023-07-02T01:40:49;19.90;66.16
65396;HTU21D;52004;45.136;39.010;2023-07-02T01:43:15;19.88;66.19
65396;HTU21D;52004;45.136;39.010;2023-07-02T01:45:41;19.87;66.21
65396;HTU21D;52004;45.136;39.010;2023-07-02T01:48:07;19.86;66.24
65396;HTU21D;52004;45.136;39.010;2023-07-02T01:50:33;19.84;66.36
65396;HTU21D;52004;45.136;39.010;2023-07-02T01:52:59;19.84;66.37
65396;HTU21D;52004;45.136;39.010;2023-07-02T01:55:25;19.84;66.42
65396;HTU21D;52004;45.136;39.010;2023-07-02T01:57:51;19.83;66.42
65396;HTU21D;52004;45.136;39.010;2023-07-02T02:00:17;19.83;66.46
65396;HTU21D;52004;45.136;39.010;2023-07-02T02:02:43;19.83;66.55
65396;HTU21D;52004;45.136;39.010;2023-07-02T02:05:09;19.83;66.61
65396;HTU21D;52004;45.136;39.010;2023-07-02T02:07:38;19.84;66.60
65396;HTU21D;52004;45.136;39.010;2023-07-02T02:10:04;19.86;66.63
65396;HTU21D;52004;45.136;39.010;2023-07-02T02:12:30;19.86;66.64
65396;HTU21D;52004;45.136;39.010;2023-07-02T02:14:56;19.87;66.68
65396;HTU21D;52004;45.136;39.010;2023-07-02T02:17:22;19.90;66.69
65396;HTU21D;52004;45.136;39.010;2023-07-02T02:19:49;19.91;66.67
65396;HTU21D;52004;45.136;39.010;2023-07-02T02:22:15;19.95;66.73
65396;HTU21D;52004;45.136;39.010;2023-07-02T02:24:41;19.96;66.72
65396;HTU21D;52004;45.136;39.010;2023-07-02T02:27:07;19.99;66.73
65396;HTU21D;52004;45.136;39.010;2023-07-02T02:29:34;20.02;66.75
65396;HTU21D;52004;45.136;39.010;2023-07-02T02:32:00;20.03;66.80
65396;HTU21D;52004;45.136;39.010;2023-07-02T02:34:26;20.05;66.82
65396;HTU21D;52004;45.136;39.010;2023-07-02T02:36:52;20.10;66.83
65396;HTU21D;52004;45.136;39.010;2023-07-02T02:39:21;20.13;66.82
65396;HTU21D;52004;45.136;39.010;2023-07-02T02:41:48;20.16;66.83
65396;HTU21D;52004;45.136;39.010;2023-07-02T02:44:18;20.19;66.83
65396;HTU21D;52004;45.136;39.010;2023-07-02T02:46:44;20.21;66.85
65396;HTU21D;52004;45.136;39.010;2023-07-02T02:49:10;20.27;66.87
65396;HTU21D;52004;45.136;39.010;2023-07-02T02:51:36;20.30;66.88
65396;HTU21D;52004;45.136;39.010;2023-07-02T02:54:02;20.33;66.91
65396;HTU21D;52004;45.136;39.010;2023-07-02T02:56:28;20.37;66.91
65396;HTU21D;52004;45.136;39.010;2023-07-02T02:58:53;20.42;66.89
65396;HTU21D;52004;45.136;39.010;2023-07-02T03:01:19;20.46;66.90
65396;HTU21D;52004;45.136;39.010;2023-07-02T03:03:45;20.51;66.91
65396;HTU21D;52004;45.136;39.010;2023-07-02T03:06:12;20.54;66.89
65396;HTU21D;52004;45.136;39.010;2023-07-02T03:08:39;20.59;66.91
65396;HTU21D;52004;45.136;39.010;2023-07-02T03:11:05;20.63;66.93
65396;HTU21D;52004;45.136;39.010;2023-07-02T03:13:31;20.69;66.91
65396;HTU21D;52004;45.136;39.010;2023-07-02T03:15:57;20.72;66.94
65396;HTU21D;52004;45.136;39.010;2023-07-02T03:18:23;20.78;66.96
65396;HTU21D;52004;45.136;39.010;2023-07-02T03:20:49;20.83;67.07
65396;HTU21D;52004;45.136;39.010;2023-07-02T03:23:14;20.87;67.02
65396;HTU21D;52004;45.136;39.010;2023-07-02T03:25:40;20.89;67.00
65396;HTU21D;52004;45.136;39.010;2023-07-02T03:28:06;20.94;67.02
65396;HTU21D;52004;45.136;39.010;2023-07-02T03:30:32;20.99;67.03
65396;HTU21D;52004;45.136;39.010;2023-07-02T03:32:58;21.04;67.07
65396;HTU21D;52004;45.136;39.010;2023-07-02T03:35:24;21.09;67.12
65396;HTU21D;52004;45.136;39.010;2023-07-02T03:37:50;21.13;67.06
65396;HTU21D;52004;45.136;39.010;2023-07-02T03:40:16;21.18;67.01
65396;HTU21D;52004;45.136;39.010;2023-07-02T03:42:42;21.22;67.01
65396;HTU21D;52004;45.136;39.010;2023-07-02T03:45:09;21.27;67.02
65396;HTU21D;52004;45.136;39.010;2023-07-02T03:47:35;21.32;67.03
65396;HTU21D;52004;45.136;39.010;2023-07-02T03:50:00;21.36;66.97
65396;HTU21D;52004;45.136;39.010;2023-07-02T03:52:26;21.43;66.95
65396;HTU21D;52004;45.136;39.010;2023-07-02T03:54:52;21.48;66.91
65396;HTU21D;52004;45.136;39.010;2023-07-02T03:57:18;21.55;66.88
65396;HTU21D;52004;45.136;39.010;2023-07-02T03:59:44;21.60;66.86
65396;HTU21D;52004;45.136;39.010;2023-07-02T04:02:10;21.68;66.85
65396;HTU21D;52004;45.136;39.010;2023-07-02T04:04:36;21.74;66.85
65396;HTU21D;52004;45.136;39.010;2023-07-02T04:07:02;21.83;66.87
65396;HTU21D;52004;45.136;39.010;2023-07-02T04:09:28;21.91;66.88
65396;HTU21D;52004;45.136;39.010;2023-07-02T04:11:54;21.97;66.84
65396;HTU21D;52004;45.136;39.010;2023-07-02T04:14:20;22.06;66.81
65396;HTU21D;52004;45.136;39.010;2023-07-02T04:16:46;22.12;66.81
65396;HTU21D;52004;45.136;39.010;2023-07-02T04:19:12;22.21;66.79
65396;HTU21D;52004;45.136;39.010;2023-07-02T04:21:38;22.27;66.75
65396;HTU21D;52004;45.136;39.010;2023-07-02T04:24:04;22.36;66.75
65396;HTU21D;52004;45.136;39.010;2023-07-02T04:26:30;22.42;66.73
65396;HTU21D;52004;45.136;39.010;2023-07-02T04:28:56;22.51;66.74
65396;HTU21D;52004;45.136;39.010;2023-07-02T04:31:22;22.61;66.72
65396;HTU21D;52004;45.136;39.010;2023-07-02T04:33:47;22.69;66.71
65396;HTU21D;52004;45.136;39.010;2023-07-02T04:36:14;22.77;66.62
65396;HTU21D;52004;45.136;39.010;2023-07-02T04:38:42;22.84;66.56
65396;HTU21D;52004;45.136;39.010;2023-07-02T04:41:08;22.88;66.48
65396;HTU21D;52004;45.136;39.010;2023-07-02T04:43:36;22.95;66.44
65396;HTU21D;52004;45.136;39.010;2023-07-02T04:46:02;23.00;66.44
65396;HTU21D;52004;45.136;39.010;2023-07-02T04:48:28;23.06;66.46
65396;HTU21D;52004;45.136;39.010;2023-07-02T04:50:54;23.13;66.35
65396;HTU21D;52004;45.136;39.010;2023-07-02T04:53:20;23.16;66.27
65396;HTU21D;52004;45.136;39.010;2023-07-02T04:55:46;23.23;66.30
65396;HTU21D;52004;45.136;39.010;2023-07-02T04:58:11;23.28;66.28
65396;HTU21D;52004;45.136;39.010;2023-07-02T05:00:37;23.35;66.27
65396;HTU21D;52004;45.136;39.010;2023-07-02T05:03:03;23.41;66.27
65396;HTU21D;52004;45.136;39.010;2023-07-02T05:05:29;23.50;66.25
65396;HTU21D;52004;45.136;39.010;2023-07-02T05:07:55;23.58;66.16
65396;HTU21D;52004;45.136;39.010;2023-07-02T05:10:21;23.62;66.15
65396;HTU21D;52004;45.136;39.010;2023-07-02T05:12:47;23.71;66.16
65396;HTU21D;52004;45.136;39.010;2023-07-02T05:15:13;23.81;66.14
65396;HTU21D;52004;45.136;39.010;2023-07-02T05:17:39;23.89;66.13
65396;HTU21D;52004;45.136;39.010;2023-07-02T05:20:05;23.99;66.13
65396;HTU21D;52004;45.136;39.010;2023-07-02T05:22:31;24.08;66.04
65396;HTU21D;52004;45.136;39.010;2023-07-02T05:24:57;24.15;65.90
65396;HTU21D;52004;45.136;39.010;2023-07-02T05:27:23;24.21;65.77
65396;HTU21D;52004;45.136;39.010;2023-07-02T05:29:49;24.25;65.78
65396;HTU21D;52004;45.136;39.010;2023-07-02T05:32:15;24.31;65.71
65396;HTU21D;52004;45.136;39.010;2023-07-02T05:34:41;24.36;65.73
65396;HTU21D;52004;45.136;39.010;2023-07-02T05:37:07;24.43;65.68
65396;HTU21D;52004;45.136;39.010;2023-07-02T05:39:35;24.51;65.69
65396;HTU21D;52004;45.136;39.010;2023-07-02T05:42:01;24.60;65.66
65396;HTU21D;52004;45.136;39.010;2023-07-02T05:44:27;24.70;65.54
65396;HTU21D;52004;45.136;39.010;2023-07-02T05:46:53;24.77;65.53
65396;HTU21D;52004;45.136;39.010;2023-07-02T05:49:19;24.86;65.51
65396;HTU21D;52004;45.136;39.010;2023-07-02T05:51:45;24.97;65.39
65396;HTU21D;52004;45.136;39.010;2023-07-02T05:54:11;25.03;65.29
65396;HTU21D;52004;45.136;39.010;2023-07-02T05:56:37;0.00;65.26
65396;HTU21D;52004;45.136;39.010;2023-07-02T05:59:03;25.18;65.22
65396;HTU21D;52004;45.136;39.010;2023-07-02T06:01:29;25.23;65.17
65396;HTU21D;52004;45.136;39.010;2023-07-02T06:03:57;25.32;65.19
65396;HTU21D;52004;45.136;39.010;2023-07-02T06:06:23;25.42;65.17
65396;HTU21D;52004;45.136;39.010;2023-07-02T06:08:50;25.52;65.08
65396;HTU21D;52004;45.136;39.010;2023-07-02T06:11:16;0.00;65.05
65396;HTU21D;52004;45.136;39.010;2023-07-02T06:13:42;25.73;64.99
65396;HTU21D;52004;45.136;39.010;2023-07-02T06:16:08;0.00;64.87
65396;HTU21D;52004;45.136;39.010;2023-07-02T06:18:34;25.90;64.69
65396;HTU21D;52004;45.136;39.010;2023-07-02T06:21:00;25.95;64.59
65396;HTU21D;52004;45.136;39.010;2023-07-02T06:23:26;26.02;64.63
65396;HTU21D;52004;45.136;39.010;2023-07-02T06:25:52;0.00;64.42
65396;HTU21D;52004;45.136;39.010;2023-07-02T06:28:27;0.00;64.26
65396;HTU21D;52004;45.136;39.010;2023-07-02T06:30:53;0.00;64.20
65396;HTU21D;52004;45.136;39.010;2023-07-02T06:33:19;26.30;64.12
65396;HTU21D;52004;45.136;39.010;2023-07-02T06:35:45;26.38;64.14
65396;HTU21D;52004;45.136;39.010;2023-07-02T06:38:11;26.48;64.11
65396;HTU21D;52004;45.136;39.010;2023-07-02T06:40:37;26.55;63.99
65396;HTU21D;52004;45.136;39.010;2023-07-02T06:43:02;26.63;63.98
65396;HTU21D;52004;45.136;39.010;2023-07-02T06:45:28;26.69;63.76
65396;HTU21D;52004;45.136;39.010;2023-07-02T06:47:54;26.76;63.67
65396;HTU21D;52004;45.136;39.010;2023-07-02T06:50:20;26.79;63.53
65396;HTU21D;52004;45.136;39.010;2023-07-02T06:52:47;26.83;63.45
65396;HTU21D;52004;45.136;39.010;2023-07-02T06:55:13;26.91;63.60
65396;HTU21D;52004;45.136;39.010;2023-07-02T06:57:48;27.02;63.63
65396;HTU21D;52004;45.136;39.010;2023-07-02T07:00:14;27.13;63.34
65396;HTU21D;52004;45.136;39.010;2023-07-02T07:02:40;27.19;63.18
65396;HTU21D;52004;45.136;39.010;2023-07-02T07:05:06;27.25;63.13
65396;HTU21D;52004;45.136;39.010;2023-07-02T07:07:32;27.29;63.09
65396;HTU21D;52004;45.136;39.010;2023-07-02T07:09:58;27.39;63.07
65396;HTU21D;52004;45.136;39.010;2023-07-02T07:12:24;27.49;63.10
65396;HTU21D;52004;45.136;39.010;2023-07-02T07:14:50;27.58;62.96
65396;HTU21D;52004;45.136;39.010;2023-07-02T07:17:16;27.67;62.71
65396;HTU21D;52004;45.136;39.010;2023-07-02T07:19:42;27.73;62.67
65396;HTU21D;52004;45.136;39.010;2023-07-02T07:22:07;27.81;62.69
65396;HTU21D;52004;45.136;39.010;2023-07-02T07:24:33;27.91;62.63
65396;HTU21D;52004;45.136;39.010;2023-07-02T07:26:59;28.01;62.44
65396;HTU21D;52004;45.136;39.010;2023-07-02T07:29:25;28.09;62.38
65396;HTU21D;52004;45.136;39.010;2023-07-02T07:31:51;28.17;62.25
65396;HTU21D;52004;45.136;39.010;2023-07-02T07:34:17;28.23;62.15
65396;HTU21D;52004;45.136;39.010;2023-07-02T07:36:43;28.29;62.14
65396;HTU21D;52004;45.136;39.010;2023-07-02T07:39:09;28.37;62.07
65396;HTU21D;52004;45.136;39.010;2023-07-02T07:41:35;28.44;61.95
65396;HTU21D;52004;45.136;39.010;2023-07-02T07:44:06;28.49;61.83
65396;HTU21D;52004;45.136;39.010;2023-07-02T07:46:32;28.56;61.83
65396;HTU21D;52004;45.136;39.010;2023-07-02T07:48:58;28.64;61.75
65396;HTU21D;52004;45.136;39.010;2023-07-02T07:51:24;28.69;61.54
65396;HTU21D;52004;45.136;39.010;2023-07-02T07:53:50;28.76;61.62
65396;HTU21D;52004;45.136;39.010;2023-07-02T07:56:16;28.88;61.63
65396;HTU21D;52004;45.136;39.010;2023-07-02T07:58:42;28.99;61.57
65396;HTU21D;52004;45.136;39.010;2023-07-02T08:01:08;29.12;61.49
65396;HTU21D;52004;45.136;39.010;2023-07-02T08:03:36;29.22;61.42
65396;HTU21D;52004;45.136;39.010;2023-07-02T08:06:02;29.32;61.18
65396;HTU21D;52004;45.136;39.010;2023-07-02T08:08:28;29.37;61.10
65396;HTU21D;52004;45.136;39.010;2023-07-02T08:10:54;29.47;61.18
65396;HTU21D;52004;45.136;39.010;2023-07-02T08:13:20;29.60;61.15
65396;HTU21D;52004;45.136;39.010;2023-07-02T08:15:46;29.73;61.02
65396;HTU21D;52004;45.136;39.010;2023-07-02T08:18:13;29.85;60.94
65396;HTU21D;52004;45.136;39.010;2023-07-02T08:20:39;29.93;60.73
65396;HTU21D;52004;45.136;39.010;2023-07-02T08:23:05;30.00;60.59
65396;HTU21D;52004;45.136;39.010;2023-07-02T08:25:31;30.03;60.46
65396;HTU21D;52004;45.136;39.010;2023-07-02T08:27:57;0.00;60.42
65396;HTU21D;52004;45.136;39.010;2023-07-02T08:30:23;30.18;60.33
65396;HTU21D;52004;45.136;39.010;2023-07-02T08:32:49;0.00;60.09
65396;HTU21D;52004;45.136;39.010;2023-07-02T08:35:15;30.23;59.77
65396;HTU21D;52004;45.136;39.010;2023-07-02T08:37:41;0.00;59.73
65396;HTU21D;52004;45.136;39.010;2023-07-02T08:40:15;30.21;59.72
65396;HTU21D;52004;45.136;39.010;2023-07-02T08:42:40;30.25;59.62
65396;HTU21D;52004;45.136;39.010;2023-07-02T08:45:06;30.28;59.57
65396;HTU21D;52004;45.136;39.010;2023-07-02T08:47:33;30.36;59.62
65396;HTU21D;52004;45.136;39.010;2023-07-02T08:49:59;30.45;59.39
65396;HTU21D;52004;45.136;39.010;2023-07-02T08:52:24;30.50;59.22
65396;HTU21D;52004;45.136;39.010;2023-07-02T08:54:51;30.53;59.19
65396;HTU21D;52004;45.136;39.010;2023-07-02T08:57:35;30.62;59.22
65396;HTU21D;52004;45.136;39.010;2023-07-02T09:00:10;30.70;59.27
65396;HTU21D;52004;45.136;39.010;2023-07-02T09:02:36;0.00;59.12
65396;HTU21D;52004;45.136;39.010;2023-07-02T09:05:03;30.90;58.99
65396;HTU21D;52004;45.136;39.010;2023-07-02T09:07:29;30.95;58.92
65396;HTU21D;52004;45.136;39.010;2023-07-02T09:09:56;31.01;58.90
65396;HTU21D;52004;45.136;39.010;2023-07-02T09:12:25;31.08;58.73
65396;HTU21D;52004;45.136;39.010;2023-07-02T09:14:59;31.14;58.74
65396;HTU21D;52004;45.136;39.010;2023-07-02T09:17:29;31.19;58.61
65396;HTU21D;52004;45.136;39.010;2023-07-02T09:19:55;31.21;58.39
65396;HTU21D;52004;45.136;39.010;2023-07-02T09:22:21;31.22;58.36
65396;HTU21D;52004;45.136;39.010;2023-07-02T09:24:51;31.26;58.18
65396;HTU21D;52004;45.136;39.010;2023-07-02T09:27:36;31.26;58.20
65396;HTU21D;52004;45.136;39.010;2023-07-02T09:30:06;31.33;58.27
65396;HTU21D;52004;45.136;39.010;2023-07-02T09:32:32;31.44;58.29
65396;HTU21D;52004;45.136;39.010;2023-07-02T09:35:17;31.58;58.18
65396;HTU21D;52004;45.136;39.010;2023-07-02T09:37:43;31.69;58.17
65396;HTU21D;52004;45.136;39.010;2023-07-02T09:40:09;31.80;58.00
65396;HTU21D;52004;45.136;39.010;2023-07-02T09:42:35;31.86;57.89
65396;HTU21D;52004;45.136;39.010;2023-07-02T09:45:04;31.93;57.74
65396;HTU21D;52004;45.136;39.010;2023-07-02T09:47:33;31.95;57.51
65396;HTU21D;52004;45.136;39.010;2023-07-02T09:50:02;31.94;57.39
65396;HTU21D;52004;45.136;39.010;2023-07-02T09:52:29;31.89;57.22
65396;HTU21D;52004;45.136;39.010;2023-07-02T09:54:55;31.87;57.31
65396;HTU21D;52004;45.136;39.010;2023-07-02T09:57:22;31.89;57.26
65396;HTU21D;52004;45.136;39.010;2023-07-02T09:59:48;31.90;57.16
65396;HTU21D;52004;45.136;39.010;2023-07-02T10:02:14;31.88;56.97
65396;HTU21D;52004;45.136;39.010;2023-07-02T10:04:43;0.00;56.93
65396;HTU21D;52004;45.136;39.010;2023-07-02T10:07:09;31.73;56.94
65396;HTU21D;52004;45.136;39.010;2023-07-02T10:12:20;31.84;57.23
65396;HTU21D;52004;45.136;39.010;2023-07-02T10:14:47;31.98;57.13
65396;HTU21D;52004;45.136;39.010;2023-07-02T10:17:23;32.09;57.12
65396;HTU21D;52004;45.136;39.010;2023-07-02T10:19:53;32.23;56.97
65396;HTU21D;52004;45.136;39.010;2023-07-02T10:22:19;32.34;56.88
65396;HTU21D;52004;45.136;39.010;2023-07-02T10:27:18;32.47;56.58
65396;HTU21D;52004;45.136;39.010;2023-07-02T10:29:50;32.46;56.52
65396;HTU21D;52004;45.136;39.010;2023-07-02T10:32:28;32.46;56.38
65396;HTU21D;52004;45.136;39.010;2023-07-02T10:35:19;32.38;56.16
65396;HTU21D;52004;45.136;39.010;2023-07-02T10:37:45;32.33;56.13
65396;HTU21D;52004;45.136;39.010;2023-07-02T10:40:12;32.37;56.15
65396;HTU21D;52004;45.136;39.010;2023-07-02T10:42:44;32.41;56.10
65396;HTU21D;52004;45.136;39.010;2023-07-02T10:45:10;32.47;56.06
65396;HTU21D;52004;45.136;39.010;2023-07-02T10:47:39;32.55;56.09
65396;HTU21D;52004;45.136;39.010;2023-07-02T10:50:14;32.59;55.85
65396;HTU21D;52004;45.136;39.010;2023-07-02T10:52:41;32.63;55.80
65396;HTU21D;52004;45.136;39.010;2023-07-02T10:55:26;32.64;55.62
65396;HTU21D;52004;45.136;39.010;2023-07-02T10:58:04;32.59;55.48
65396;HTU21D;52004;45.136;39.010;2023-07-02T11:00:31;32.54;55.38
65396;HTU21D;52004;45.136;39.010;2023-07-02T11:02:57;32.48;55.37
65396;HTU21D;52004;45.136;39.010;2023-07-02T11:05:23;32.47;55.45
65396;HTU21D;52004;45.136;39.010;2023-07-02T11:07:49;32.49;55.39
65396;HTU21D;52004;45.136;39.010;2023-07-02T11:10:22;0.00;55.40
65396;HTU21D;52004;45.136;39.010;2023-07-02T11:12:49;32.56;55.27
65396;HTU21D;52004;45.136;39.010;2023-07-02T11:15:35;32.59;55.12
65396;HTU21D;52004;45.136;39.010;2023-07-02T11:18:14;32.60;55.13
65396;HTU21D;52004;45.136;39.010;2023-07-02T11:20:58;32.63;54.97
65396;HTU21D;52004;45.136;39.010;2023-07-02T11:23:34;32.59;54.93
65396;HTU21D;52004;45.136;39.010;2023-07-02T11:26:01;32.56;54.91
65396;HTU21D;52004;45.136;39.010;2023-07-02T11:28:28;32.56;54.97
65396;HTU21D;52004;45.136;39.010;2023-07-02T11:30:54;32.63;55.05
65396;HTU21D;52004;45.136;39.010;2023-07-02T11:33:39;32.72;55.07
65396;HTU21D;52004;45.136;39.010;2023-07-02T11:36:06;32.79;54.90
65396;HTU21D;52004;45.136;39.010;2023-07-02T11:38:33;32.86;54.86
65396;HTU21D;52004;45.136;39.010;2023-07-02T11:40:59;32.91;54.80
65396;HTU21D;52004;45.136;39.010;2023-07-02T11:43:25;32.93;54.62
65396;HTU21D;52004;45.136;39.010;2023-07-02T11:45:52;32.91;54.64
65396;HTU21D;52004;45.136;39.010;2023-07-02T11:48:18;32.96;54.61
65396;HTU21D;52004;45.136;39.010;2023-07-02T11:50:46;33.00;54.50
65396;HTU21D;52004;45.136;39.010;2023-07-02T11:53:12;33.01;54.47
65396;HTU21D;52004;45.136;39.010;2023-07-02T11:55:38;33.04;54.50
65396;HTU21D;52004;45.136;39.010;2023-07-02T11:58:13;33.09;54.45
65396;HTU21D;52004;45.136;39.010;2023-07-02T12:00:39;33.16;54.44
65396;HTU21D;52004;45.136;39.010;2023-07-02T12:03:05;0.00;54.33
65396;HTU21D;52004;45.136;39.010;2023-07-02T12:05:50;33.19;54.09
65396;HTU21D;52004;45.136;39.010;2023-07-02T12:08:17;33.13;54.11
65396;HTU21D;52004;45.136;39.010;2023-07-02T12:10:43;33.13;54.22
65396;HTU21D;52004;45.136;39.010;2023-07-02T12:13:08;33.15;54.16
65396;HTU21D;52004;45.136;39.010;2023-07-02T12:15:34;33.17;54.15
65396;HTU21D;52004;45.136;39.010;2023-07-02T12:18:00;33.19;54.05
65396;HTU21D;52004;45.136;39.010;2023-07-02T12:20:26;33.19;53.91
65396;HTU21D;52004;45.136;39.010;2023-07-02T12:22:52;33.13;53.81
65396;HTU21D;52004;45.136;39.010;2023-07-02T12:25:19;33.09;53.73
65396;HTU21D;52004;45.136;39.010;2023-07-02T12:27:44;33.00;53.72
65396;HTU21D;52004;45.136;39.010;2023-07-02T12:30:10;32.92;53.65
65396;HTU21D;52004;45.136;39.010;2023-07-02T12:32:38;32.83;53.65
65396;HTU21D;52004;45.136;39.010;2023-07-02T12:35:04;32.76;53.65
65396;HTU21D;52004;45.136;39.010;2023-07-02T12:37:31;32.70;53.59
65396;HTU21D;52004;45.136;39.010;2023-07-02T12:39:57;32.63;53.59
65396;HTU21D;52004;45.136;39.010;2023-07-02T12:42:23;32.57;53.59
65396;HTU21D;52004;45.136;39.010;2023-07-02T12:44:49;32.50;53.59
65396;HTU21D;52004;45.136;39.010;2023-07-02T12:47:34;32.43;53.55
65396;HTU21D;52004;45.136;39.010;2023-07-02T12:50:00;32.35;53.55
65396;HTU21D;52004;45.136;39.010;2023-07-02T12:52:26;0.00;53.62
65396;HTU21D;52004;45.136;39.010;2023-07-02T12:54:52;32.28;53.59
65396;HTU21D;52004;45.136;39.010;2023-07-02T12:57:36;32.24;53.56
65396;HTU21D;52004;45.136;39.010;2023-07-02T13:00:21;32.18;53.48
65396;HTU21D;52004;45.136;39.010;2023-07-02T13:02:47;32.16;53.52
65396;HTU21D;52004;45.136;39.010;2023-07-02T13:05:13;32.16;53.54
65396;HTU21D;52004;45.136;39.010;2023-07-02T13:07:39;32.19;53.56
65396;HTU21D;52004;45.136;39.010;2023-07-02T13:10:05;32.23;53.50
65396;HTU21D;52004;45.136;39.010;2023-07-02T13:12:31;32.25;53.42
65396;HTU21D;52004;45.136;39.010;2023-07-02T13:14:57;32.26;53.34
65396;HTU21D;52004;45.136;39.010;2023-07-02T13:17:23;32.26;53.23
65396;HTU21D;52004;45.136;39.010;2023-07-02T13:19:49;32.24;53.23
65396;HTU21D;52004;45.136;39.010;2023-07-02T13:22:15;32.25;53.17
65396;HTU21D;52004;45.136;39.010;2023-07-02T13:24:41;32.25;53.09
65396;HTU21D;52004;45.136;39.010;2023-07-02T13:27:09;32.27;53.09
65396;HTU21D;52004;45.136;39.010;2023-07-02T13:29:36;32.29;53.09
65396;HTU21D;52004;45.136;39.010;2023-07-02T13:32:02;32.32;53.10
65396;HTU21D;52004;45.136;39.010;2023-07-02T13:34:28;0.00;53.08
65396;HTU21D;52004;45.136;39.010;2023-07-02T13:36:54;32.39;53.01
65396;HTU21D;52004;45.136;39.010;2023-07-02T13:39:20;32.40;52.88
65396;HTU21D;52004;45.136;39.010;2023-07-02T13:41:46;32.39;52.91
65396;HTU21D;52004;45.136;39.010;2023-07-02T13:44:13;32.38;52.88
65396;HTU21D;52004;45.136;39.010;2023-07-02T13:46:40;32.35;52.89
65396;HTU21D;52004;45.136;39.010;2023-07-02T13:49:06;32.39;52.94
65396;HTU21D;52004;45.136;39.010;2023-07-02T13:51:32;32.41;52.87
65396;HTU21D;52004;45.136;39.010;2023-07-02T13:53:57;32.39;52.81
65396;HTU21D;52004;45.136;39.010;2023-07-02T13:56:23;32.39;52.78
65396;HTU21D;52004;45.136;39.010;2023-07-02T14:01:22;32.32;52.72
65396;HTU21D;52004;45.136;39.010;2023-07-02T14:03:48;32.31;52.67
65396;HTU21D;52004;45.136;39.010;2023-07-02T14:06:14;32.29;52.64
65396;HTU21D;52004;45.136;39.010;2023-07-02T14:08:41;32.25;52.62
65396;HTU21D;52004;45.136;39.010;2023-07-02T14:11:07;32.22;52.65
65396;HTU21D;52004;45.136;39.010;2023-07-02T14:13:33;32.19;52.56
65396;HTU21D;52004;45.136;39.010;2023-07-02T14:15:59;32.14;52.53
65396;HTU21D;52004;45.136;39.010;2023-07-02T14:18:25;32.08;52.46
65396;HTU21D;52004;45.136;39.010;2023-07-02T14:20:51;32.01;52.53
65396;HTU21D;52004;45.136;39.010;2023-07-02T14:23:17;31.99;52.58
65396;HTU21D;52004;45.136;39.010;2023-07-02T14:25:43;31.98;52.62
65396;HTU21D;52004;45.136;39.010;2023-07-02T14:28:09;31.99;52.59
65396;HTU21D;52004;45.136;39.010;2023-07-02T14:30:35;32.00;52.60
65396;HTU21D;52004;45.136;39.010;2023-07-02T14:33:01;32.03;52.55
65396;HTU21D;52004;45.136;39.010;2023-07-02T14:35:27;32.01;52.32
65396;HTU21D;52004;45.136;39.010;2023-07-02T14:38:11;31.97;52.41
65396;HTU21D;52004;45.136;39.010;2023-07-02T14:40:37;31.95;52.46
65396;HTU21D;52004;45.136;39.010;2023-07-02T14:43:22;31.94;52.36
65396;HTU21D;52004;45.136;39.010;2023-07-02T14:45:51;0.00;52.34
65396;HTU21D;52004;45.136;39.010;2023-07-02T14:48:17;31.83;52.40
65396;HTU21D;52004;45.136;39.010;2023-07-02T14:50:44;31.81;52.42
65396;HTU21D;52004;45.136;39.010;2023-07-02T14:53:10;31.79;52.36
65396;HTU21D;52004;45.136;39.010;2023-07-02T14:56:02;31.68;52.03
65396;HTU21D;52004;45.136;39.010;2023-07-02T14:58:28;0.00;52.14
65396;HTU21D;52004;45.136;39.010;2023-07-02T15:01:01;0.00;52.30
65396;HTU21D;52004;45.136;39.010;2023-07-02T15:03:27;31.37;52.37
65396;HTU21D;52004;45.136;39.010;2023-07-02T15:06:13;31.34;52.37
65396;HTU21D;52004;45.136;39.010;2023-07-02T15:08:39;31.28;52.33
65396;HTU21D;52004;45.136;39.010;2023-07-02T15:11:06;31.21;52.31
65396;HTU21D;52004;45.136;39.010;2023-07-02T15:13:32;31.09;52.33